Time;durP1;ratioP1;P1;durP2;ratioP2;P2;SDS_P1;SDS_P2;PMS_P1;PMS_P2;Temp;Humidity;BMP_temperature;BMP_pressure;BME280_temperature;BME280_humidity;BME280_pressure;Samples;Min_cycle;Max_cycle;Signal;HPM_P1;HPM_P2
2021/04/19 00:01:37;;;;;;;10.73;9.20;;;;;;;;;;5046778;28;20035;-77
2021/04/19 00:04:03;;;;;;;12.60;9.27;;;;;;;;;;5053062;28;20090;-79
2021/04/19 00:06:28;;;;;;;12.93;9.93;;;;;;;;;;5053030;28;20060;-77
2021/04/19 00:08:54;;;;;;;14.07;10.73;;;;;;;;;;5052808;28;20025;-77
2021/04/19 00:11:19;;;;;;;13.18;10.68;;;;;;;;;;5034766;28;20029;-77
2021/04/19 00:13:45;;;;;;;15.48;10.98;;;;;;;;;;5051165;28;20039;-77
2021/04/19 00:16:11;;;;;;;16.00;11.23;;;;;;;;;;5036535;28;20381;-77
2021/04/19 00:18:37;;;;;;;13.30;10.65;;;;;;;;;;5051682;28;20033;-77
2021/04/19 00:21:04;;;;;;;15.35;10.82;;;;;;;;;;5032776;28;20034;-77
2021/04/19 00:23:29;;;;;;;13.63;11.30;;;;;;;;;;5032945;28;20037;-78
2021/04/19 00:25:55;;;;;;;17.33;11.05;;;;;;;;;;5032150;28;20394;-77
2021/04/19 00:28:20;;;;;;;13.40;10.77;;;;;;;;;;5032838;28;20040;-77
2021/04/19 00:30:46;;;;;;;14.68;10.65;;;;;;;;;;5041398;28;20040;-77
2021/04/19 00:33:11;;;;;;;12.95;10.48;;;;;;;;;;5051684;28;20032;-77
2021/04/19 00:35:37;;;;;;;13.38;11.07;;;;;;;;;;5034004;28;20094;-77
2021/04/19 00:38:02;;;;;;;13.57;10.07;;;;;;;;;;5052791;28;20029;-77
2021/04/19 00:40:30;;;;;;;15.75;11.52;;;;;;;;;;5053022;28;20394;-77
2021/04/19 00:42:56;;;;;;;15.00;11.15;;;;;;;;;;5052354;28;20401;-78
2021/04/19 00:45:23;;;;;;;13.50;10.23;;;;;;;;;;5052590;28;20060;-77
2021/04/19 00:47:49;;;;;;;12.98;10.25;;;;;;;;;;5051126;28;20452;-77
2021/04/19 00:50:19;;;;;;;13.02;10.40;;;;;;;;;;5052375;28;20028;-77
2021/04/19 00:52:46;;;;;;;15.02;10.77;;;;;;;;;;5046909;28;20086;-77
2021/04/19 00:55:13;;;;;;;14.82;10.90;;;;;;;;;;5034026;28;20461;-77
2021/04/19 00:57:39;;;;;;;12.23;10.32;;;;;;;;;;5052197;28;20024;-77
2021/04/19 01:00:12;;;;;;;13.07;10.63;;;;;;;;;;5051944;28;20037;-78
2021/04/19 01:02:38;;;;;;;12.32;10.65;;;;;;;;;;5050635;28;20083;-77
2021/04/19 01:05:07;;;;;;;14.25;11.07;;;;;;;;;;5052046;28;20035;-77
2021/04/19 01:07:33;;;;;;;12.95;10.40;;;;;;;;;;5018560;28;20033;-77
2021/04/19 01:09:58;;;;;;;14.85;10.27;;;;;;;;;;5013995;28;20080;-77
2021/04/19 01:12:24;;;;;;;15.70;10.82;;;;;;;;;;5032337;28;20029;-77
2021/04/19 01:14:49;;;;;;;15.98;10.25;;;;;;;;;;5032015;28;20025;-77
2021/04/19 01:17:14;;;;;;;15.48;10.73;;;;;;;;;;5032138;28;20075;-77
2021/04/19 01:19:40;;;;;;;13.77;11.13;;;;;;;;;;5033110;28;20025;-77
2021/04/19 01:22:06;;;;;;;14.57;10.80;;;;;;;;;;5051973;28;20056;-77
2021/04/19 01:24:32;;;;;;;11.55;9.85;;;;;;;;;;5033540;28;20025;-77
2021/04/19 01:26:58;;;;;;;12.80;10.55;;;;;;;;;;5051536;28;20108;-77
2021/04/19 01:29:23;;;;;;;12.48;10.50;;;;;;;;;;5051905;28;20021;-78
2021/04/19 01:31:48;;;;;;;12.70;10.52;;;;;;;;;;5051928;28;20068;-77
2021/04/19 01:34:14;;;;;;;11.35;9.70;;;;;;;;;;5051899;28;20127;-77
2021/04/19 01:36:39;;;;;;;11.20;9.98;;;;;;;;;;5050351;28;20408;-77
2021/04/19 01:39:05;;;;;;;11.63;10.43;;;;;;;;;;5033271;28;20017;-77
2021/04/19 01:41:30;;;;;;;11.95;9.98;;;;;;;;;;5051441;28;20040;-77
2021/04/19 01:43:56;;;;;;;13.05;11.10;;;;;;;;;;5051597;28;20041;-77
2021/04/19 01:46:22;;;;;;;13.10;10.45;;;;;;;;;;5055270;28;20029;-77
2021/04/19 01:48:47;;;;;;;13.50;10.10;;;;;;;;;;5055455;28;20032;-77
2021/04/19 01:51:13;;;;;;;11.65;10.18;;;;;;;;;;5054318;28;20028;-77
2021/04/19 01:53:39;;;;;;;12.88;10.57;;;;;;;;;;5054456;28;20527;-78
2021/04/19 01:56:05;;;;;;;14.70;10.63;;;;;;;;;;5054870;28;20021;-77
2021/04/19 01:58:31;;;;;;;13.35;10.27;;;;;;;;;;5054930;28;20037;-77
2021/04/19 02:00:59;;;;;;;12.55;10.73;;;;;;;;;;5055115;28;20024;-77
2021/04/19 02:03:47;;;;;;;14.27;10.82;;;;;;;;;;5055448;28;20028;-77
2021/04/19 02:06:53;;;;;;;14.15;11.18;;;;;;;;;;5055192;28;20107;-77
2021/04/19 02:09:34;;;;;;;14.10;11.30;;;;;;;;;;5053831;28;20453;-77
2021/04/19 02:12:09;;;;;;;13.13;10.82;;;;;;;;;;5054752;28;20020;-77
2021/04/19 02:14:52;;;;;;;11.27;10.02;;;;;;;;;;5035344;28;20029;-77
2021/04/19 02:17:46;;;;;;;12.00;10.80;;;;;;;;;;5035324;28;20053;-76
2021/04/19 02:20:34;;;;;;;11.90;10.57;;;;;;;;;;5035364;28;20064;-77
2021/04/19 02:23:18;;;;;;;14.73;10.98;;;;;;;;;;5034671;28;20028;-77
2021/04/19 02:25:44;;;;;;;12.20;10.32;;;;;;;;;;5037482;28;20412;-76
2021/04/19 02:28:15;;;;;;;14.88;11.38;;;;;;;;;;5036626;28;20021;-77
2021/04/19 02:30:46;;;;;;;13.23;11.17;;;;;;;;;;5054592;28;20429;-77
2021/04/19 02:33:15;;;;;;;13.68;10.55;;;;;;;;;;5025930;28;20048;-77
2021/04/19 02:35:42;;;;;;;11.55;10.35;;;;;;;;;;5034653;28;20097;-77
2021/04/19 02:38:10;;;;;;;13.98;10.73;;;;;;;;;;5034612;28;20449;-77
2021/04/19 02:40:38;;;;;;;12.32;10.65;;;;;;;;;;5034710;28;20025;-77
2021/04/19 02:43:04;;;;;;;14.02;11.40;;;;;;;;;;5044347;28;20052;-77
2021/04/19 02:45:30;;;;;;;12.60;11.30;;;;;;;;;;5054469;28;20036;-77
2021/04/19 02:47:56;;;;;;;12.32;10.75;;;;;;;;;;5054025;28;20025;-77
2021/04/19 02:50:24;;;;;;;12.77;11.32;;;;;;;;;;5054139;28;20078;-77
2021/04/19 02:52:51;;;;;;;12.80;10.98;;;;;;;;;;5054319;28;20017;-77
2021/04/19 02:55:19;;;;;;;15.93;11.63;;;;;;;;;;5054212;28;20017;-77
2021/04/19 02:57:54;;;;;;;16.17;10.93;;;;;;;;;;5053519;28;20029;-76
2021/04/19 03:00:27;;;;;;;12.23;10.57;;;;;;;;;;5053174;28;20495;-76
2021/04/19 03:02:56;;;;;;;11.65;10.45;;;;;;;;;;5053994;28;20055;-77
2021/04/19 03:05:21;;;;;;;16.08;11.48;;;;;;;;;;5049739;28;20092;-76
2021/04/19 03:07:53;;;;;;;13.88;11.20;;;;;;;;;;5034337;28;20100;-77
2021/04/19 03:10:20;;;;;;;14.25;11.27;;;;;;;;;;5034230;28;20017;-76
2021/04/19 03:12:51;;;;;;;13.27;10.90;;;;;;;;;;5052327;28;20021;-77
2021/04/19 03:15:23;;;;;;;13.63;11.18;;;;;;;;;;5045544;28;20025;-77
2021/04/19 03:17:54;;;;;;;12.10;10.68;;;;;;;;;;5054017;28;20028;-77
2021/04/19 03:20:23;;;;;;;12.77;11.38;;;;;;;;;;5053545;28;20021;-76
2021/04/19 03:22:50;;;;;;;13.13;11.48;;;;;;;;;;5053907;28;20029;-76
2021/04/19 03:25:17;;;;;;;13.52;11.60;;;;;;;;;;5053391;28;20572;-76
2021/04/19 03:27:45;;;;;;;13.38;11.98;;;;;;;;;;5053877;28;20056;-76
2021/04/19 03:30:13;;;;;;;13.60;11.18;;;;;;;;;;5052181;28;20071;-77
2021/04/19 03:32:48;;;;;;;14.38;11.82;;;;;;;;;;5053542;28;20052;-77
2021/04/19 03:35:18;;;;;;;12.55;11.25;;;;;;;;;;5052710;28;20025;-77
2021/04/19 03:37:46;;;;;;;14.98;11.77;;;;;;;;;;5053061;28;20021;-77
2021/04/19 03:40:11;;;;;;;14.45;11.90;;;;;;;;;;5053198;28;20025;-77
2021/04/19 03:42:39;;;;;;;14.52;11.68;;;;;;;;;;5053220;28;20055;-77
2021/04/19 03:45:07;;;;;;;15.18;12.23;;;;;;;;;;5053477;28;20474;-77
2021/04/19 03:47:35;;;;;;;13.95;11.95;;;;;;;;;;5051602;28;20432;-77
2021/04/19 03:50:02;;;;;;;14.48;12.48;;;;;;;;;;5034732;28;20029;-77
2021/04/19 03:52:36;;;;;;;13.73;12.30;;;;;;;;;;5052599;28;20033;-77
2021/04/19 03:55:04;;;;;;;15.75;12.55;;;;;;;;;;5053343;28;20044;-77
2021/04/19 03:57:31;;;;;;;17.15;12.52;;;;;;;;;;5053001;28;20056;-77
2021/04/19 04:00:03;;;;;;;14.07;11.52;;;;;;;;;;5053067;28;20025;-77
2021/04/19 04:02:30;;;;;;;15.48;12.10;;;;;;;;;;5052632;28;20033;-77
2021/04/19 04:04:57;;;;;;;15.25;13.23;;;;;;;;;;5051647;28;20094;-77
2021/04/19 04:07:24;;;;;;;16.85;13.18;;;;;;;;;;5052691;28;20036;-77
2021/04/19 04:09:50;;;;;;;13.77;12.30;;;;;;;;;;5052636;28;20025;-76
2021/04/19 04:12:16;;;;;;;12.93;11.63;;;;;;;;;;5053027;28;20033;-77
2021/04/19 04:14:53;;;;;;;14.85;13.07;;;;;;;;;;5052513;28;20033;-77
2021/04/19 04:17:19;;;;;;;15.43;13.00;;;;;;;;;;5052412;28;20033;-77
2021/04/19 04:19:45;;;;;;;17.10;13.88;;;;;;;;;;5051628;28;20035;-77
2021/04/19 04:22:11;;;;;;;15.23;12.80;;;;;;;;;;5034648;28;20041;-77
2021/04/19 04:24:38;;;;;;;15.88;12.45;;;;;;;;;;5052390;28;20102;-77
2021/04/19 04:27:04;;;;;;;14.20;11.95;;;;;;;;;;5052364;28;20089;-77
2021/04/19 04:29:30;;;;;;;15.18;13.50;;;;;;;;;;5052587;28;20039;-77
2021/04/19 04:31:55;;;;;;;15.95;13.10;;;;;;;;;;5052359;28;20025;-77
2021/04/19 04:34:21;;;;;;;15.05;12.40;;;;;;;;;;5052524;28;20451;-77
2021/04/19 04:36:46;;;;;;;15.65;12.82;;;;;;;;;;5051146;28;20393;-77
2021/04/19 04:39:12;;;;;;;17.70;13.75;;;;;;;;;;5052263;28;20087;-77
2021/04/19 04:41:37;;;;;;;14.25;12.75;;;;;;;;;;5052166;28;20029;-77
2021/04/19 04:44:06;;;;;;;15.30;13.68;;;;;;;;;;5006163;28;20046;-77
2021/04/19 04:46:40;;;;;;;17.30;13.23;;;;;;;;;;4992463;28;20430;-76
2021/04/19 04:49:12;;;;;;;15.77;13.07;;;;;;;;;;5005377;28;20079;-77
2021/04/19 04:51:38;;;;;;;15.52;13.50;;;;;;;;;;5012712;28;20470;-77
2021/04/19 04:54:09;;;;;;;17.17;13.90;;;;;;;;;;5012740;28;20108;-77
2021/04/19 04:56:38;;;;;;;14.57;12.88;;;;;;;;;;5012545;28;20041;-77
2021/04/19 04:59:04;;;;;;;15.63;13.93;;;;;;;;;;5012631;28;20037;-76
2021/04/19 05:01:31;;;;;;;16.73;13.27;;;;;;;;;;5011993;28;20265;-76
2021/04/19 05:03:58;;;;;;;17.27;13.65;;;;;;;;;;5011267;28;20030;-77
2021/04/19 05:06:23;;;;;;;16.60;14.48;;;;;;;;;;5011079;28;20486;-77
2021/04/19 05:08:49;;;;;;;17.33;14.27;;;;;;;;;;5011932;28;20036;-77
2021/04/19 05:11:15;;;;;;;16.25;13.00;;;;;;;;;;5011555;28;20022;-77
2021/04/19 05:13:41;;;;;;;18.17;14.10;;;;;;;;;;5012391;28;20033;-77
2021/04/19 05:16:07;;;;;;;14.73;12.98;;;;;;;;;;5012225;28;20443;-77
2021/04/19 05:18:32;;;;;;;17.73;14.00;;;;;;;;;;5012330;28;20030;-77
2021/04/19 05:20:58;;;;;;;19.75;14.27;;;;;;;;;;5015556;28;20437;-77
2021/04/19 05:23:23;;;;;;;17.25;14.43;;;;;;;;;;5014791;28;20021;-77
2021/04/19 05:25:49;;;;;;;17.55;13.98;;;;;;;;;;5011436;28;20072;-78
2021/04/19 05:28:18;;;;;;;16.40;14.00;;;;;;;;;;5011358;28;20018;-77
2021/04/19 05:30:44;;;;;;;15.32;13.23;;;;;;;;;;5015768;28;20036;-77
2021/04/19 05:33:10;;;;;;;17.48;13.98;;;;;;;;;;5016353;28;20034;-77
2021/04/19 05:35:36;;;;;;;16.65;14.45;;;;;;;;;;5016129;28;20495;-77
2021/04/19 05:38:05;;;;;;;18.67;15.15;;;;;;;;;;5016110;28;20095;-77
2021/04/19 05:40:33;;;;;;;18.67;14.90;;;;;;;;;;5014526;28;20038;-78
2021/04/19 05:43:01;;;;;;;20.00;15.05;;;;;;;;;;5036962;28;20049;-77
2021/04/19 05:45:27;;;;;;;16.35;14.45;;;;;;;;;;5054313;28;20036;-77
2021/04/19 05:47:53;;;;;;;20.42;15.07;;;;;;;;;;5055813;28;20025;-77
2021/04/19 05:50:23;;;;;;;17.77;15.10;;;;;;;;;;5056490;28;20611;-77
2021/04/19 05:52:51;;;;;;;18.70;14.68;;;;;;;;;;5051716;28;20025;-77
2021/04/19 05:55:18;;;;;;;17.08;14.80;;;;;;;;;;5039960;28;20027;-77
2021/04/19 05:58:01;;;;;;;22.42;15.18;;;;;;;;;;5048952;28;20065;-77
2021/04/19 06:00:51;;;;;;;21.77;16.55;;;;;;;;;;5054145;28;20116;-77
2021/04/19 06:03:22;;;;;;;22.77;17.02;;;;;;;;;;5044750;28;20100;-77
2021/04/19 06:06:06;;;;;;;21.90;16.88;;;;;;;;;;5036163;28;20396;-77
2021/04/19 06:08:53;;;;;;;21.02;16.15;;;;;;;;;;5047295;28;20025;-77
2021/04/19 06:11:54;;;;;;;20.10;16.52;;;;;;;;;;5032865;28;20456;-77
2021/04/19 06:14:35;;;;;;;19.08;15.68;;;;;;;;;;4976397;28;20550;-77
2021/04/19 06:17:03;;;;;;;20.20;15.45;;;;;;;;;;4984969;28;20089;-77
2021/04/19 06:19:31;;;;;;;19.25;14.95;;;;;;;;;;4991747;28;20034;-77
2021/04/19 06:21:56;;;;;;;21.40;15.43;;;;;;;;;;4989392;28;20026;-77
2021/04/19 06:24:22;;;;;;;20.52;15.60;;;;;;;;;;4980463;28;20584;-77
2021/04/19 06:26:48;;;;;;;17.73;15.45;;;;;;;;;;4980417;28;20054;-77
2021/04/19 06:29:14;;;;;;;20.33;15.55;;;;;;;;;;4984916;28;20033;-77
2021/04/19 06:31:48;;;;;;;21.27;16.50;;;;;;;;;;4980671;28;20506;-76
2021/04/19 06:34:15;;;;;;;25.52;16.58;;;;;;;;;;4979523;28;20555;-77
2021/04/19 06:36:43;;;;;;;21.88;14.60;;;;;;;;;;4990505;28;20039;-77
2021/04/19 06:39:11;;;;;;;21.10;15.75;;;;;;;;;;4965455;28;20031;-78
2021/04/19 06:41:36;;;;;;;44.47;18.80;;;;;;;;;;4981491;28;20098;-78
2021/04/19 06:44:03;;;;;;;19.40;15.30;;;;;;;;;;4981259;28;20132;-77
2021/04/19 06:46:38;;;;;;;18.25;16.15;;;;;;;;;;4981905;28;20466;-77
2021/04/19 06:49:05;;;;;;;19.23;16.10;;;;;;;;;;4987211;28;20127;-78
2021/04/19 06:51:31;;;;;;;22.60;16.52;;;;;;;;;;5046860;28;20025;-78
2021/04/19 06:53:58;;;;;;;23.55;18.08;;;;;;;;;;5035761;28;20123;-78
2021/04/19 06:56:29;;;;;;;18.45;15.90;;;;;;;;;;5036210;28;20374;-78
2021/04/19 06:58:55;;;;;;;21.23;16.27;;;;;;;;;;5039509;28;20025;-78
2021/04/19 07:01:24;;;;;;;23.05;19.63;;;;;;;;;;5036916;28;20052;-77
2021/04/19 07:03:55;;;;;;;22.50;19.40;;;;;;;;;;5035375;28;20038;-78
2021/04/19 07:06:22;;;;;;;26.00;22.55;;;;;;;;;;5037363;28;20027;-78
2021/04/19 07:08:48;;;;;;;22.52;17.45;;;;;;;;;;5036860;28;20056;-75
2021/04/19 07:11:18;;;;;;;23.35;18.58;;;;;;;;;;5020323;28;20565;-75
2021/04/19 07:13:44;;;;;;;23.90;17.33;;;;;;;;;;5038473;28;20109;-75
2021/04/19 07:16:11;;;;;;;17.65;14.27;;;;;;;;;;5028033;28;20085;-76
2021/04/19 07:18:38;;;;;;;16.27;14.55;;;;;;;;;;5023561;28;20434;-76
2021/04/19 07:21:05;;;;;;;17.77;13.82;;;;;;;;;;5022307;28;20119;-75
2021/04/19 07:23:35;;;;;;;16.33;13.85;;;;;;;;;;5031832;28;20490;-76
2021/04/19 07:26:01;;;;;;;16.55;13.63;;;;;;;;;;5049486;28;20028;-75
2021/04/19 07:28:26;;;;;;;18.58;14.27;;;;;;;;;;5044738;28;20017;-76
2021/04/19 07:31:00;;;;;;;22.27;14.05;;;;;;;;;;5048611;28;21503;-76
2021/04/19 07:33:31;;;;;;;25.75;17.20;;;;;;;;;;5051243;28;20445;-76
2021/04/19 07:35:57;;;;;;;23.88;15.25;;;;;;;;;;5053686;28;20063;-76
2021/04/19 07:38:36;;;;;;;15.57;13.38;;;;;;;;;;5040531;28;20033;-76
2021/04/19 07:41:02;;;;;;;18.45;13.73;;;;;;;;;;5036077;28;20473;-75
2021/04/19 07:43:28;;;;;;;19.65;15.00;;;;;;;;;;5039261;28;20057;-74
2021/04/19 07:46:05;;;;;;;21.35;14.82;;;;;;;;;;5037391;28;20029;-76
2021/04/19 07:48:33;;;;;;;17.55;14.80;;;;;;;;;;5016482;28;20022;-74
2021/04/19 07:50:59;;;;;;;16.27;13.35;;;;;;;;;;5016324;28;20136;-75
2021/04/19 07:53:25;;;;;;;16.92;14.45;;;;;;;;;;5047414;28;20436;-76
2021/04/19 07:55:52;;;;;;;17.80;13.88;;;;;;;;;;5021282;28;20036;-75
2021/04/19 07:58:25;;;;;;;30.27;23.08;;;;;;;;;;5041475;28;20492;-75
2021/04/19 08:01:00;;;;;;;16.75;14.13;;;;;;;;;;5037801;28;20036;-75
2021/04/19 08:03:38;;;;;;;17.50;13.68;;;;;;;;;;5047616;28;20032;-74
2021/04/19 08:06:24;;;;;;;20.63;15.55;;;;;;;;;;5044429;28;20028;-76
2021/04/19 08:08:50;;;;;;;16.02;13.43;;;;;;;;;;5038461;28;20037;-75
2021/04/19 08:11:17;;;;;;;16.02;13.02;;;;;;;;;;5048478;28;20374;-74
2021/04/19 08:13:45;;;;;;;19.90;13.57;;;;;;;;;;5046229;28;20108;-76
2021/04/19 08:16:23;;;;;;;18.08;13.95;;;;;;;;;;5037775;28;20039;-76
2021/04/19 08:18:49;;;;;;;22.98;19.85;;;;;;;;;;5047811;28;20021;-74
2021/04/19 08:21:25;;;;;;;18.60;13.52;;;;;;;;;;5039625;28;20017;-74
2021/04/19 08:23:51;;;;;;;14.50;12.60;;;;;;;;;;5030294;28;20040;-74
2021/04/19 08:26:16;;;;;;;16.83;13.23;;;;;;;;;;5033739;28;20483;-76
2021/04/19 08:28:43;;;;;;;16.60;13.15;;;;;;;;;;5038779;28;20017;-76
2021/04/19 08:31:10;;;;;;;17.40;11.98;;;;;;;;;;5033015;28;20037;-74
2021/04/19 08:33:36;;;;;;;18.63;14.02;;;;;;;;;;5041178;28;20512;-76
2021/04/19 08:36:03;;;;;;;17.23;12.95;;;;;;;;;;5038236;28;20488;-75
2021/04/19 08:38:31;;;;;;;17.27;12.07;;;;;;;;;;5051013;28;20036;-74
2021/04/19 08:40:57;;;;;;;15.23;11.73;;;;;;;;;;5028571;28;20199;-75
2021/04/19 08:43:24;;;;;;;16.52;12.48;;;;;;;;;;5046816;28;20516;-76
2021/04/19 08:45:51;;;;;;;15.18;11.15;;;;;;;;;;5032274;28;20044;-76
2021/04/19 08:48:17;;;;;;;13.73;10.93;;;;;;;;;;5033033;28;20025;-76
2021/04/19 08:50:46;;;;;;;14.80;11.27;;;;;;;;;;5049276;28;20069;-75
2021/04/19 08:53:14;;;;;;;13.45;11.07;;;;;;;;;;5047844;28;20044;-75
2021/04/19 08:55:41;;;;;;;12.45;11.15;;;;;;;;;;5034362;28;20048;-75
2021/04/19 08:58:09;;;;;;;13.23;10.90;;;;;;;;;;5030225;28;20503;-75
2021/04/19 09:00:41;;;;;;;11.13;10.00;;;;;;;;;;5041898;28;20028;-74
2021/04/19 09:03:07;;;;;;;;;;;;;;;;;;5042573;28;20118;-74
2021/04/19 09:05:33;;;;;;;14.25;10.43;;;;;;;;;;5047483;28;19948;-76
2021/04/19 09:08:12;;;;;;;12.50;10.82;;;;;;;;;;5021014;28;20029;-75
2021/04/19 09:11:00;;;;;;;13.18;9.82;;;;;;;;;;5039057;28;20392;-76
2021/04/19 09:13:37;;;;;;;13.55;10.98;;;;;;;;;;5050124;28;20024;-76
2021/04/19 09:16:23;;;;;;;11.38;9.77;;;;;;;;;;5044102;28;20470;-76
2021/04/19 09:18:57;;;;;;;11.25;9.88;;;;;;;;;;5057508;28;20055;-76
2021/04/19 09:21:39;;;;;;;11.88;9.90;;;;;;;;;;5055794;28;20032;-75
2021/04/19 09:24:08;;;;;;;11.85;9.27;;;;;;;;;;5035656;28;20059;-75
2021/04/19 09:26:46;;;;;;;13.70;10.50;;;;;;;;;;5040104;28;20087;-76
2021/04/19 09:29:37;;;;;;;13.48;9.35;;;;;;;;;;5040180;28;20017;-74
2021/04/19 09:32:05;;;;;;;14.60;10.15;;;;;;;;;;5046753;28;20029;-76
2021/04/19 09:34:54;;;;;;;13.38;10.27;;;;;;;;;;5031523;28;20040;-75
2021/04/19 09:37:22;;;;;;;10.00;8.95;;;;;;;;;;5043243;28;20036;-76
2021/04/19 09:39:47;;;;;;;24.25;18.63;;;;;;;;;;5039334;28;20132;-75
2021/04/19 09:42:14;;;;;;;15.48;12.57;;;;;;;;;;5014319;28;20573;-76
2021/04/19 09:44:55;;;;;;;12.40;9.85;;;;;;;;;;4994654;28;20108;-76
2021/04/19 09:47:47;;;;;;;9.77;8.63;;;;;;;;;;5007148;28;20033;-76
2021/04/19 09:50:14;;;;;;;10.15;8.10;;;;;;;;;;4992038;28;20084;-74
2021/04/19 09:52:41;;;;;;;9.25;8.35;;;;;;;;;;5002057;28;20021;-75
2021/04/19 09:55:06;;;;;;;14.00;8.82;;;;;;;;;;5007560;28;20065;-74
2021/04/19 09:57:33;;;;;;;10.20;9.20;;;;;;;;;;4997302;28;20406;-76
2021/04/19 09:59:58;;;;;;;9.02;7.47;;;;;;;;;;5009392;28;20033;-74
2021/04/19 10:02:24;;;;;;;8.95;7.60;;;;;;;;;;5002917;28;20022;-75
2021/04/19 10:04:51;;;;;;;8.77;7.20;;;;;;;;;;5003618;28;20046;-75
2021/04/19 10:07:18;;;;;;;10.93;7.72;;;;;;;;;;5007329;28;20029;-75
2021/04/19 10:09:45;;;;;;;8.23;7.32;;;;;;;;;;5003674;28;20017;-74
2021/04/19 10:12:15;;;;;;;9.13;6.93;;;;;;;;;;5008546;28;20091;-74
2021/04/19 10:14:40;;;;;;;8.73;7.15;;;;;;;;;;5007542;28;20026;-75
2021/04/19 10:17:27;;;;;;;8.77;6.75;;;;;;;;;;5000267;28;20038;-76
2021/04/19 10:19:53;;;;;;;9.25;6.28;;;;;;;;;;5000165;28;20057;-75
2021/04/19 10:22:19;;;;;;;7.18;5.50;;;;;;;;;;5001552;28;20449;-77
2021/04/19 10:24:56;;;;;;;8.48;6.25;;;;;;;;;;5006768;28;20505;-76
2021/04/19 10:27:30;;;;;;;9.45;5.78;;;;;;;;;;5010343;28;20038;-75
2021/04/19 10:30:09;;;;;;;6.82;5.63;;;;;;;;;;5005802;28;20029;-77
2021/04/19 10:32:34;;;;;;;6.90;5.65;;;;;;;;;;5011564;28;20375;-75
2021/04/19 10:35:00;;;;;;;7.72;5.95;;;;;;;;;;5012313;28;20080;-75
2021/04/19 10:37:25;;;;;;;9.05;5.78;;;;;;;;;;4995549;28;20038;-76
2021/04/19 10:39:51;;;;;;;8.43;7.30;;;;;;;;;;5010585;28;20038;-76
2021/04/19 10:42:31;;;;;;;8.80;7.90;;;;;;;;;;5005918;28;20390;-75
2021/04/19 10:45:08;;;;;;;5.70;5.10;;;;;;;;;;5004199;28;20022;-75
2021/04/19 10:47:33;;;;;;;7.68;5.78;;;;;;;;;;4999276;28;20056;-77
2021/04/19 10:50:00;;;;;;;7.60;5.80;;;;;;;;;;5005576;28;20069;-75
2021/04/19 10:52:30;;;;;;;6.70;5.50;;;;;;;;;;5003084;28;20393;-76
2021/04/19 10:54:55;;;;;;;6.55;5.10;;;;;;;;;;5007338;28;20470;-76
2021/04/19 10:57:26;;;;;;;6.97;5.97;;;;;;;;;;5003694;28;20137;-76
2021/04/19 10:59:56;;;;;;;8.00;5.65;;;;;;;;;;5004666;28;20040;-75
2021/04/19 11:02:27;;;;;;;6.63;5.90;;;;;;;;;;5002838;28;20030;-75
2021/04/19 11:04:54;;;;;;;10.20;5.78;;;;;;;;;;4998845;28;20037;-75
2021/04/19 11:07:27;;;;;;;7.55;5.60;;;;;;;;;;5002343;28;20579;-75
2021/04/19 11:10:11;;;;;;;7.63;5.55;;;;;;;;;;5000464;28;20021;-76
2021/04/19 11:12:38;;;;;;;6.50;5.35;;;;;;;;;;5000929;28;20394;-75
2021/04/19 11:15:11;;;;;;;6.22;5.63;;;;;;;;;;4997238;28;20525;-75
2021/04/19 11:17:37;;;;;;;7.15;5.80;;;;;;;;;;4995914;28;20054;-77
2021/04/19 11:20:25;;;;;;;8.23;6.15;;;;;;;;;;5004617;28;20065;-77
2021/04/19 11:22:51;;;;;;;7.75;6.00;;;;;;;;;;5002720;28;20050;-75
2021/04/19 11:25:22;;;;;;;7.40;6.38;;;;;;;;;;5001953;28;20026;-75
2021/04/19 11:28:11;;;;;;;7.57;5.80;;;;;;;;;;4999755;28;20018;-76
2021/04/19 11:30:37;;;;;;;6.28;5.68;;;;;;;;;;4995799;28;20473;-75
2021/04/19 11:33:10;;;;;;;6.30;5.10;;;;;;;;;;5003521;28;20053;-75
2021/04/19 11:35:42;;;;;;;7.35;5.82;;;;;;;;;;5004024;28;20084;-75
2021/04/19 11:38:10;;;;;;;6.18;4.57;;;;;;;;;;4996853;28;20026;-75
2021/04/19 11:40:40;;;;;;;7.93;5.40;;;;;;;;;;5002356;28;20030;-75
2021/04/19 11:43:26;;;;;;;6.88;5.32;;;;;;;;;;5019756;28;20422;-75
2021/04/19 11:46:05;;;;;;;6.90;5.72;;;;;;;;;;5019680;28;20052;-74
2021/04/19 11:48:34;;;;;;;6.07;5.35;;;;;;;;;;5035412;28;20104;-75
2021/04/19 11:51:00;;;;;;;5.68;5.18;;;;;;;;;;5025968;28;20031;-74
2021/04/19 11:53:31;;;;;;;8.10;7.20;;;;;;;;;;5047709;28;20021;-75
2021/04/19 11:55:57;;;;;;;;;;;;;;;;;;5036037;28;20021;-76
2021/04/19 11:58:22;;;;;;;7.00;4.93;;;;;;;;;;5053455;28;20007;-74
2021/04/19 12:00:49;;;;;;;9.68;6.47;;;;;;;;;;5051778;28;20032;-74
2021/04/19 12:03:15;;;;;;;8.35;6.55;;;;;;;;;;5030686;28;20029;-74
2021/04/19 12:05:42;;;;;;;7.50;5.35;;;;;;;;;;5018102;28;20500;-75
2021/04/19 12:08:09;;;;;;;11.20;5.35;;;;;;;;;;5044383;28;20060;-75
2021/04/19 12:10:35;;;;;;;12.23;9.80;;;;;;;;;;5051716;28;20032;-75
2021/04/19 12:13:00;;;;;;;19.95;13.65;;;;;;;;;;5039636;28;20056;-76
2021/04/19 12:15:26;;;;;;;6.70;5.20;;;;;;;;;;5046240;28;20175;-76
2021/04/19 12:17:52;;;;;;;6.28;5.05;;;;;;;;;;5044496;28;20037;-74
2021/04/19 12:20:17;;;;;;;4.88;4.38;;;;;;;;;;5023669;28;20477;-75
2021/04/19 12:22:42;;;;;;;5.95;4.60;;;;;;;;;;5048144;28;20090;-76
2021/04/19 12:25:09;;;;;;;8.60;4.45;;;;;;;;;;5039695;28;20060;-76
2021/04/19 12:27:35;;;;;;;5.82;4.20;;;;;;;;;;5043319;28;20032;-75
2021/04/19 12:30:02;;;;;;;7.55;4.78;;;;;;;;;;5034571;28;20021;-75
2021/04/19 12:32:27;;;;;;;5.78;4.70;;;;;;;;;;5050365;28;20016;-75
2021/04/19 12:34:53;;;;;;;5.63;4.22;;;;;;;;;;5050526;28;20565;-75
2021/04/19 12:37:18;;;;;;;7.45;4.35;;;;;;;;;;5040878;28;20036;-75
2021/04/19 12:39:43;;;;;;;5.47;4.70;;;;;;;;;;5035277;28;20025;-74
2021/04/19 12:42:09;;;;;;;6.68;5.13;;;;;;;;;;5048022;28;20079;-75
2021/04/19 12:44:34;;;;;;;6.13;4.88;;;;;;;;;;5058760;28;20029;-74
2021/04/19 12:47:00;;;;;;;5.88;4.72;;;;;;;;;;5051612;28;20021;-74
2021/04/19 12:49:25;;;;;;;9.27;6.90;;;;;;;;;;5053874;28;20025;-75
2021/04/19 12:51:51;;;;;;;10.43;8.15;;;;;;;;;;5036825;28;20028;-75
2021/04/19 12:54:17;;;;;;;14.18;9.57;;;;;;;;;;5038226;28;20473;-74
2021/04/19 12:56:44;;;;;;;7.18;5.22;;;;;;;;;;5050512;28;20075;-76
2021/04/19 12:59:09;;;;;;;5.43;4.90;;;;;;;;;;5033406;28;20029;-75
2021/04/19 13:01:35;;;;;;;7.40;6.55;;;;;;;;;;5051000;28;20032;-75
2021/04/19 13:04:00;;;;;;;6.55;5.07;;;;;;;;;;5043129;28;20017;-76
2021/04/19 13:06:26;;;;;;;7.18;5.57;;;;;;;;;;5039224;28;20481;-76
2021/04/19 13:08:52;;;;;;;6.95;4.75;;;;;;;;;;5040881;28;20018;-76
2021/04/19 13:11:18;;;;;;;5.22;4.63;;;;;;;;;;5046204;28;20051;-77
2021/04/19 13:13:43;;;;;;;5.90;4.60;;;;;;;;;;5042911;28;20064;-75
2021/04/19 13:16:09;;;;;;;5.70;4.47;;;;;;;;;;5051225;28;20090;-75
2021/04/19 13:18:34;;;;;;;5.13;4.40;;;;;;;;;;5034690;28;20025;-76
2021/04/19 13:21:02;;;;;;;4.82;4.07;;;;;;;;;;5025741;28;20021;-77
2021/04/19 13:23:28;;;;;;;5.63;4.45;;;;;;;;;;5029260;28;20391;-75
2021/04/19 13:25:53;;;;;;;6.82;4.63;;;;;;;;;;5043760;28;20040;-75
2021/04/19 13:28:18;;;;;;;5.75;4.25;;;;;;;;;;5026933;28;20035;-76
2021/04/19 13:30:44;;;;;;;5.57;4.47;;;;;;;;;;5043062;28;20501;-75
2021/04/19 13:33:09;;;;;;;5.22;4.65;;;;;;;;;;5049974;28;20028;-76
2021/04/19 13:35:35;;;;;;;4.43;4.03;;;;;;;;;;5044591;28;20041;-75
2021/04/19 13:38:03;;;;;;;5.53;4.38;;;;;;;;;;5046822;28;21153;-75
2021/04/19 13:40:31;;;;;;;6.75;4.82;;;;;;;;;;5050969;28;20032;-75
2021/04/19 13:42:59;;;;;;;4.35;3.63;;;;;;;;;;5040588;28;20072;-75
2021/04/19 13:45:25;;;;;;;8.48;3.75;;;;;;;;;;5048784;28;20524;-76
2021/04/19 13:47:51;;;;;;;5.82;4.13;;;;;;;;;;5048219;28;20023;-75
2021/04/19 13:50:18;;;;;;;5.50;3.60;;;;;;;;;;5054027;28;20028;-75
2021/04/19 13:52:45;;;;;;;5.65;3.65;;;;;;;;;;5054637;28;20037;-74
2021/04/19 13:55:11;;;;;;;5.13;3.47;;;;;;;;;;5052417;28;20060;-77
2021/04/19 13:57:38;;;;;;;3.75;3.30;;;;;;;;;;5051769;28;20116;-75
2021/04/19 14:00:06;;;;;;;4.45;3.90;;;;;;;;;;5044276;28;20484;-75
2021/04/19 14:02:32;;;;;;;4.70;3.58;;;;;;;;;;5050971;28;20090;-78
2021/04/19 14:04:57;;;;;;;7.28;5.35;;;;;;;;;;5043137;28;20036;-78
2021/04/19 14:07:24;;;;;;;6.65;4.47;;;;;;;;;;5050380;28;20027;-79
2021/04/19 14:09:49;;;;;;;5.28;3.70;;;;;;;;;;5046171;28;20497;-77
2021/04/19 14:12:17;;;;;;;4.10;3.50;;;;;;;;;;5050560;28;20029;-77
2021/04/19 14:14:42;;;;;;;4.20;3.55;;;;;;;;;;5048803;28;20029;-76
2021/04/19 14:17:08;;;;;;;4.13;3.05;;;;;;;;;;5043663;28;20559;-78
2021/04/19 14:19:33;;;;;;;5.78;3.25;;;;;;;;;;5049941;28;20107;-77
2021/04/19 14:21:59;;;;;;;4.00;2.95;;;;;;;;;;5025634;28;20037;-76
2021/04/19 14:24:24;;;;;;;6.78;3.45;;;;;;;;;;5053032;28;20025;-76
2021/04/19 14:26:50;;;;;;;4.50;3.35;;;;;;;;;;5058438;28;20078;-76
2021/04/19 14:29:15;;;;;;;10.52;8.20;;;;;;;;;;5040261;28;20250;-78
2021/04/19 14:31:41;;;;;;;10.35;8.52;;;;;;;;;;5037572;28;20039;-77
2021/04/19 14:34:07;;;;;;;5.82;3.85;;;;;;;;;;5037256;28;20047;-76
2021/04/19 14:36:33;;;;;;;6.38;3.67;;;;;;;;;;5051785;28;20033;-77